Terminal Aerodrome Forecast
Issued by NWS

Home | Current Version | Previous Version | Text Only | Print | Product List | Glossary On
Versions: 1 2 3 4 5 6 7 8 9 10 11 12 13 14 15 16 17 18 19 20 21 22 23 24 25 26 27 28 29 30 31 32 33 34 35 36 37 38 39 40 41 42 43 44 45 46 47 48 49 50
000
FTUS45 KBOU 230540
TAFBJC
TAF
KBJC 230540Z 2306/2406 30007KT P6SM SCT100 BKN150
     FM230800 33010G15KT P6SM SCT050 BKN080
     FM230900 35013G25KT P6SM -SHSN SCT025 BKN040 OVC060
     FM231000 03016G30KT 5SM -SN BR SCT014 BKN020 OVC035
      TEMPO 2310/2313 2SM -SN BKN008 OVC014
     FM231500 35010G18KT P6SM SCT045 BKN070
     FM231900 32024G36KT P6SM SCT080 BKN130
     FM232300 28014KT P6SM FEW090 BKN130
     FM240400 270018G30KT P6SM SCT120 BKN150=

USA.gov is the U.S. government's official web portal to all federal, state and local government web resources and services.